sensor_id;sensor_type;location;lat;lon;timestamp;P1;durP1;ratioP1;P2;durP2;ratioP2
61907;SDS011;47864;52.526;19.672;2023-04-25T00:00:11;13.40;;;8.85;;
61907;SDS011;47864;52.526;19.672;2023-04-25T00:02:12;13.23;;;8.63;;
61907;SDS011;47864;52.526;19.672;2023-04-25T00:04:14;15.15;;;9.25;;
61907;SDS011;47864;52.526;19.672;2023-04-25T00:06:16;16.77;;;9.38;;
61907;SDS011;47864;52.526;19.672;2023-04-25T00:08:18;12.95;;;9.43;;
61907;SDS011;47864;52.526;19.672;2023-04-25T00:10:20;14.75;;;9.13;;
61907;SDS011;47864;52.526;19.672;2023-04-25T00:12:21;13.77;;;9.10;;
61907;SDS011;47864;52.526;19.672;2023-04-25T00:14:23;16.95;;;8.50;;
61907;SDS011;47864;52.526;19.672;2023-04-25T00:16:24;15.13;;;8.75;;
61907;SDS011;47864;52.526;19.672;2023-04-25T00:18:26;14.95;;;8.98;;
61907;SDS011;47864;52.526;19.672;2023-04-25T00:20:28;13.48;;;9.05;;
61907;SDS011;47864;52.526;19.672;2023-04-25T00:22:29;12.30;;;8.68;;
61907;SDS011;47864;52.526;19.672;2023-04-25T00:24:31;11.13;;;8.25;;
61907;SDS011;47864;52.526;19.672;2023-04-25T00:26:33;12.38;;;8.52;;
61907;SDS011;47864;52.526;19.672;2023-04-25T00:28:35;11.48;;;7.93;;
61907;SDS011;47864;52.526;19.672;2023-04-25T00:30:37;12.52;;;8.90;;
61907;SDS011;47864;52.526;19.672;2023-04-25T00:32:40;11.90;;;8.70;;
61907;SDS011;47864;52.526;19.672;2023-04-25T00:34:41;14.90;;;8.65;;
61907;SDS011;47864;52.526;19.672;2023-04-25T00:36:43;12.70;;;7.95;;
61907;SDS011;47864;52.526;19.672;2023-04-25T00:38:45;13.98;;;8.02;;
61907;SDS011;47864;52.526;19.672;2023-04-25T00:40:46;11.85;;;7.70;;
61907;SDS011;47864;52.526;19.672;2023-04-25T00:42:48;13.32;;;8.98;;
61907;SDS011;47864;52.526;19.672;2023-04-25T00:44:51;14.75;;;8.80;;
61907;SDS011;47864;52.526;19.672;2023-04-25T00:46:53;14.25;;;8.43;;
61907;SDS011;47864;52.526;19.672;2023-04-25T00:48:55;13.02;;;8.73;;
61907;SDS011;47864;52.526;19.672;2023-04-25T00:50:57;12.50;;;8.52;;
61907;SDS011;47864;52.526;19.672;2023-04-25T00:52:59;15.75;;;8.20;;
61907;SDS011;47864;52.526;19.672;2023-04-25T00:55:01;13.25;;;8.20;;
61907;SDS011;47864;52.526;19.672;2023-04-25T00:57:03;13.02;;;8.10;;
61907;SDS011;47864;52.526;19.672;2023-04-25T00:59:05;10.70;;;8.18;;
61907;SDS011;47864;52.526;19.672;2023-04-25T01:01:07;11.05;;;7.63;;
61907;SDS011;47864;52.526;19.672;2023-04-25T01:03:09;11.93;;;7.75;;
61907;SDS011;47864;52.526;19.672;2023-04-25T01:05:11;11.43;;;8.13;;
61907;SDS011;47864;52.526;19.672;2023-04-25T01:07:12;13.80;;;7.93;;
61907;SDS011;47864;52.526;19.672;2023-04-25T01:09:14;13.13;;;7.88;;
61907;SDS011;47864;52.526;19.672;2023-04-25T01:11:16;13.05;;;8.40;;
61907;SDS011;47864;52.526;19.672;2023-04-25T01:13:18;13.00;;;8.48;;
61907;SDS011;47864;52.526;19.672;2023-04-25T01:15:19;12.10;;;7.90;;
61907;SDS011;47864;52.526;19.672;2023-04-25T01:17:21;13.43;;;8.02;;
61907;SDS011;47864;52.526;19.672;2023-04-25T01:19:23;10.73;;;8.07;;
61907;SDS011;47864;52.526;19.672;2023-04-25T01:21:25;13.95;;;8.55;;
61907;SDS011;47864;52.526;19.672;2023-04-25T01:23:26;13.10;;;7.35;;
61907;SDS011;47864;52.526;19.672;2023-04-25T01:25:28;15.25;;;8.63;;
61907;SDS011;47864;52.526;19.672;2023-04-25T01:27:30;11.63;;;7.65;;
61907;SDS011;47864;52.526;19.672;2023-04-25T01:29:32;13.43;;;8.57;;
61907;SDS011;47864;52.526;19.672;2023-04-25T01:31:35;12.05;;;7.53;;
61907;SDS011;47864;52.526;19.672;2023-04-25T01:33:37;12.25;;;7.85;;
61907;SDS011;47864;52.526;19.672;2023-04-25T01:35:39;11.95;;;7.85;;
61907;SDS011;47864;52.526;19.672;2023-04-25T01:37:41;12.98;;;7.63;;
61907;SDS011;47864;52.526;19.672;2023-04-25T01:39:43;13.88;;;8.20;;
61907;SDS011;47864;52.526;19.672;2023-04-25T01:41:48;11.85;;;8.23;;
61907;SDS011;47864;52.526;19.672;2023-04-25T01:43:50;12.85;;;8.27;;
61907;SDS011;47864;52.526;19.672;2023-04-25T01:45:52;15.45;;;8.35;;
61907;SDS011;47864;52.526;19.672;2023-04-25T01:47:53;10.38;;;6.93;;
61907;SDS011;47864;52.526;19.672;2023-04-25T01:49:55;11.93;;;7.80;;
61907;SDS011;47864;52.526;19.672;2023-04-25T01:51:57;11.15;;;7.55;;
61907;SDS011;47864;52.526;19.672;2023-04-25T01:53:59;12.50;;;8.05;;
61907;SDS011;47864;52.526;19.672;2023-04-25T01:56:01;9.80;;;7.43;;
61907;SDS011;47864;52.526;19.672;2023-04-25T01:58:03;12.43;;;8.00;;
61907;SDS011;47864;52.526;19.672;2023-04-25T02:00:05;11.48;;;8.05;;
61907;SDS011;47864;52.526;19.672;2023-04-25T02:02:07;10.93;;;7.47;;
61907;SDS011;47864;52.526;19.672;2023-04-25T02:04:09;10.02;;;7.30;;
61907;SDS011;47864;52.526;19.672;2023-04-25T02:06:11;11.13;;;7.50;;
61907;SDS011;47864;52.526;19.672;2023-04-25T02:08:12;10.98;;;7.88;;
61907;SDS011;47864;52.526;19.672;2023-04-25T02:10:14;12.38;;;6.90;;
61907;SDS011;47864;52.526;19.672;2023-04-25T02:12:16;11.70;;;7.45;;
61907;SDS011;47864;52.526;19.672;2023-04-25T02:14:17;9.93;;;7.22;;
61907;SDS011;47864;52.526;19.672;2023-04-25T02:16:19;12.00;;;7.72;;
61907;SDS011;47864;52.526;19.672;2023-04-25T02:18:20;14.05;;;7.43;;
61907;SDS011;47864;52.526;19.672;2023-04-25T02:20:22;11.05;;;7.10;;
61907;SDS011;47864;52.526;19.672;2023-04-25T02:22:25;11.43;;;7.67;;
61907;SDS011;47864;52.526;19.672;2023-04-25T02:24:26;10.75;;;7.80;;
61907;SDS011;47864;52.526;19.672;2023-04-25T02:26:28;11.60;;;7.40;;
61907;SDS011;47864;52.526;19.672;2023-04-25T02:28:30;13.05;;;8.00;;
61907;SDS011;47864;52.526;19.672;2023-04-25T02:30:31;10.43;;;7.43;;
61907;SDS011;47864;52.526;19.672;2023-04-25T02:32:33;14.23;;;7.88;;
61907;SDS011;47864;52.526;19.672;2023-04-25T02:34:35;9.55;;;7.15;;
61907;SDS011;47864;52.526;19.672;2023-04-25T02:36:36;13.90;;;8.20;;
61907;SDS011;47864;52.526;19.672;2023-04-25T02:38:38;11.05;;;7.80;;
61907;SDS011;47864;52.526;19.672;2023-04-25T02:40:40;13.52;;;7.93;;
61907;SDS011;47864;52.526;19.672;2023-04-25T02:42:41;14.25;;;8.13;;
61907;SDS011;47864;52.526;19.672;2023-04-25T02:44:43;14.95;;;8.63;;
61907;SDS011;47864;52.526;19.672;2023-04-25T02:46:45;11.90;;;8.07;;
61907;SDS011;47864;52.526;19.672;2023-04-25T02:48:46;12.27;;;8.25;;
61907;SDS011;47864;52.526;19.672;2023-04-25T02:50:48;14.90;;;8.23;;
61907;SDS011;47864;52.526;19.672;2023-04-25T02:52:49;10.00;;;7.32;;
61907;SDS011;47864;52.526;19.672;2023-04-25T02:54:51;15.68;;;8.07;;
61907;SDS011;47864;52.526;19.672;2023-04-25T02:56:52;13.38;;;8.00;;
61907;SDS011;47864;52.526;19.672;2023-04-25T02:58:54;12.68;;;8.27;;
61907;SDS011;47864;52.526;19.672;2023-04-25T03:00:55;15.95;;;8.90;;
61907;SDS011;47864;52.526;19.672;2023-04-25T03:02:57;13.07;;;8.10;;
61907;SDS011;47864;52.526;19.672;2023-04-25T03:04:59;12.27;;;8.30;;
61907;SDS011;47864;52.526;19.672;2023-04-25T03:07:00;10.77;;;7.65;;
61907;SDS011;47864;52.526;19.672;2023-04-25T03:09:02;11.55;;;8.05;;
61907;SDS011;47864;52.526;19.672;2023-04-25T03:11:03;11.82;;;7.90;;
61907;SDS011;47864;52.526;19.672;2023-04-25T03:13:05;12.52;;;7.85;;
61907;SDS011;47864;52.526;19.672;2023-04-25T03:15:06;12.75;;;7.93;;
61907;SDS011;47864;52.526;19.672;2023-04-25T03:17:08;13.02;;;8.05;;
61907;SDS011;47864;52.526;19.672;2023-04-25T03:19:09;13.95;;;8.02;;
61907;SDS011;47864;52.526;19.672;2023-04-25T03:21:11;12.10;;;7.65;;
61907;SDS011;47864;52.526;19.672;2023-04-25T03:23:13;11.85;;;7.70;;
61907;SDS011;47864;52.526;19.672;2023-04-25T03:25:14;13.65;;;8.07;;
61907;SDS011;47864;52.526;19.672;2023-04-25T03:27:16;12.57;;;8.07;;
61907;SDS011;47864;52.526;19.672;2023-04-25T03:29:18;12.27;;;7.90;;
61907;SDS011;47864;52.526;19.672;2023-04-25T03:31:20;12.52;;;8.27;;
61907;SDS011;47864;52.526;19.672;2023-04-25T03:33:21;12.32;;;7.40;;
61907;SDS011;47864;52.526;19.672;2023-04-25T03:35:23;10.63;;;7.53;;
61907;SDS011;47864;52.526;19.672;2023-04-25T03:37:26;13.60;;;8.07;;
61907;SDS011;47864;52.526;19.672;2023-04-25T03:39:28;10.70;;;7.65;;
61907;SDS011;47864;52.526;19.672;2023-04-25T03:41:29;15.00;;;7.72;;
61907;SDS011;47864;52.526;19.672;2023-04-25T03:43:31;10.45;;;7.45;;
61907;SDS011;47864;52.526;19.672;2023-04-25T03:45:32;12.85;;;7.70;;
61907;SDS011;47864;52.526;19.672;2023-04-25T03:47:34;12.10;;;7.72;;
61907;SDS011;47864;52.526;19.672;2023-04-25T03:49:35;11.15;;;7.72;;
61907;SDS011;47864;52.526;19.672;2023-04-25T03:51:37;11.20;;;7.32;;
61907;SDS011;47864;52.526;19.672;2023-04-25T03:53:39;10.88;;;7.20;;
61907;SDS011;47864;52.526;19.672;2023-04-25T03:55:40;10.50;;;6.97;;
61907;SDS011;47864;52.526;19.672;2023-04-25T03:57:43;9.43;;;6.57;;
61907;SDS011;47864;52.526;19.672;2023-04-25T03:59:45;9.93;;;6.40;;
61907;SDS011;47864;52.526;19.672;2023-04-25T04:01:46;10.07;;;6.90;;
61907;SDS011;47864;52.526;19.672;2023-04-25T04:03:48;9.35;;;6.13;;
61907;SDS011;47864;52.526;19.672;2023-04-25T04:05:50;10.95;;;6.55;;
61907;SDS011;47864;52.526;19.672;2023-04-25T04:07:52;9.27;;;6.40;;
61907;SDS011;47864;52.526;19.672;2023-04-25T04:09:53;9.10;;;6.47;;
61907;SDS011;47864;52.526;19.672;2023-04-25T04:11:55;9.23;;;6.57;;
61907;SDS011;47864;52.526;19.672;2023-04-25T04:13:57;8.02;;;6.28;;
61907;SDS011;47864;52.526;19.672;2023-04-25T04:15:58;10.00;;;7.03;;
61907;SDS011;47864;52.526;19.672;2023-04-25T04:18:00;9.35;;;6.65;;
61907;SDS011;47864;52.526;19.672;2023-04-25T04:20:02;11.32;;;6.70;;
61907;SDS011;47864;52.526;19.672;2023-04-25T04:22:03;10.93;;;5.93;;
61907;SDS011;47864;52.526;19.672;2023-04-25T04:24:05;10.80;;;6.80;;
61907;SDS011;47864;52.526;19.672;2023-04-25T04:26:07;8.23;;;6.25;;
61907;SDS011;47864;52.526;19.672;2023-04-25T04:28:08;10.07;;;7.13;;
61907;SDS011;47864;52.526;19.672;2023-04-25T04:30:10;12.68;;;7.65;;
61907;SDS011;47864;52.526;19.672;2023-04-25T04:32:12;11.38;;;7.60;;
61907;SDS011;47864;52.526;19.672;2023-04-25T04:34:15;9.98;;;7.15;;
61907;SDS011;47864;52.526;19.672;2023-04-25T04:36:16;9.48;;;6.93;;
61907;SDS011;47864;52.526;19.672;2023-04-25T04:38:17;9.93;;;7.00;;
61907;SDS011;47864;52.526;19.672;2023-04-25T04:40:19;10.30;;;7.15;;
61907;SDS011;47864;52.526;19.672;2023-04-25T04:42:21;9.45;;;6.68;;
61907;SDS011;47864;52.526;19.672;2023-04-25T04:44:22;12.40;;;7.25;;
61907;SDS011;47864;52.526;19.672;2023-04-25T04:46:24;9.32;;;6.60;;
61907;SDS011;47864;52.526;19.672;2023-04-25T04:48:26;12.35;;;6.70;;
61907;SDS011;47864;52.526;19.672;2023-04-25T04:50:27;8.02;;;5.53;;
61907;SDS011;47864;52.526;19.672;2023-04-25T04:52:29;7.05;;;5.53;;
61907;SDS011;47864;52.526;19.672;2023-04-25T04:54:31;7.70;;;5.63;;
61907;SDS011;47864;52.526;19.672;2023-04-25T04:56:32;6.75;;;4.50;;
61907;SDS011;47864;52.526;19.672;2023-04-25T04:58:34;6.07;;;4.47;;
61907;SDS011;47864;52.526;19.672;2023-04-25T05:00:35;6.43;;;3.78;;
61907;SDS011;47864;52.526;19.672;2023-04-25T05:02:37;5.18;;;3.78;;
61907;SDS011;47864;52.526;19.672;2023-04-25T05:04:40;5.30;;;3.73;;
61907;SDS011;47864;52.526;19.672;2023-04-25T05:06:42;6.68;;;3.33;;
61907;SDS011;47864;52.526;19.672;2023-04-25T05:08:44;6.47;;;3.80;;
61907;SDS011;47864;52.526;19.672;2023-04-25T05:10:45;9.57;;;3.60;;
61907;SDS011;47864;52.526;19.672;2023-04-25T05:12:47;5.25;;;3.50;;
61907;SDS011;47864;52.526;19.672;2023-04-25T05:14:49;6.25;;;3.22;;
61907;SDS011;47864;52.526;19.672;2023-04-25T05:16:50;6.40;;;3.50;;
61907;SDS011;47864;52.526;19.672;2023-04-25T05:18:52;5.00;;;3.30;;
61907;SDS011;47864;52.526;19.672;2023-04-25T05:20:53;4.32;;;3.28;;
61907;SDS011;47864;52.526;19.672;2023-04-25T05:22:55;5.40;;;3.33;;
61907;SDS011;47864;52.526;19.672;2023-04-25T05:24:56;4.70;;;3.30;;
61907;SDS011;47864;52.526;19.672;2023-04-25T05:26:58;4.95;;;2.85;;
61907;SDS011;47864;52.526;19.672;2023-04-25T05:29:00;5.45;;;2.70;;
61907;SDS011;47864;52.526;19.672;2023-04-25T05:31:01;3.83;;;2.83;;
61907;SDS011;47864;52.526;19.672;2023-04-25T05:33:03;3.92;;;2.80;;
61907;SDS011;47864;52.526;19.672;2023-04-25T05:35:04;8.15;;;3.08;;
61907;SDS011;47864;52.526;19.672;2023-04-25T05:37:06;5.50;;;2.80;;
61907;SDS011;47864;52.526;19.672;2023-04-25T05:39:08;5.82;;;2.60;;
61907;SDS011;47864;52.526;19.672;2023-04-25T05:41:10;4.03;;;2.42;;
61907;SDS011;47864;52.526;19.672;2023-04-25T05:43:11;3.92;;;2.60;;
61907;SDS011;47864;52.526;19.672;2023-04-25T05:45:13;5.28;;;2.40;;
61907;SDS011;47864;52.526;19.672;2023-04-25T05:47:14;4.90;;;2.88;;
61907;SDS011;47864;52.526;19.672;2023-04-25T05:49:16;3.88;;;2.70;;
61907;SDS011;47864;52.526;19.672;2023-04-25T05:51:19;4.78;;;2.70;;
61907;SDS011;47864;52.526;19.672;2023-04-25T05:53:21;3.28;;;2.28;;
61907;SDS011;47864;52.526;19.672;2023-04-25T05:55:23;3.97;;;2.70;;
61907;SDS011;47864;52.526;19.672;2023-04-25T05:57:25;3.72;;;2.63;;
61907;SDS011;47864;52.526;19.672;2023-04-25T05:59:28;3.83;;;2.28;;
61907;SDS011;47864;52.526;19.672;2023-04-25T06:01:29;3.65;;;2.50;;
61907;SDS011;47864;52.526;19.672;2023-04-25T06:03:31;5.88;;;2.83;;
61907;SDS011;47864;52.526;19.672;2023-04-25T06:05:33;3.53;;;2.40;;
61907;SDS011;47864;52.526;19.672;2023-04-25T06:07:34;6.93;;;2.60;;
61907;SDS011;47864;52.526;19.672;2023-04-25T06:09:36;3.28;;;2.28;;
61907;SDS011;47864;52.526;19.672;2023-04-25T06:11:37;4.80;;;2.90;;
61907;SDS011;47864;52.526;19.672;2023-04-25T06:13:39;4.80;;;2.30;;
61907;SDS011;47864;52.526;19.672;2023-04-25T06:15:40;5.53;;;2.38;;
61907;SDS011;47864;52.526;19.672;2023-04-25T06:17:42;5.65;;;2.90;;
61907;SDS011;47864;52.526;19.672;2023-04-25T06:19:43;5.40;;;3.17;;
61907;SDS011;47864;52.526;19.672;2023-04-25T06:21:45;4.13;;;2.78;;
61907;SDS011;47864;52.526;19.672;2023-04-25T06:23:46;4.00;;;2.92;;
61907;SDS011;47864;52.526;19.672;2023-04-25T06:25:49;4.28;;;2.95;;
61907;SDS011;47864;52.526;19.672;2023-04-25T06:27:51;4.22;;;3.00;;
61907;SDS011;47864;52.526;19.672;2023-04-25T06:29:52;5.32;;;3.00;;
61907;SDS011;47864;52.526;19.672;2023-04-25T06:31:54;3.70;;;2.60;;
61907;SDS011;47864;52.526;19.672;2023-04-25T06:33:55;5.43;;;3.03;;
61907;SDS011;47864;52.526;19.672;2023-04-25T06:35:57;6.60;;;3.15;;
61907;SDS011;47864;52.526;19.672;2023-04-25T06:37:58;4.13;;;2.90;;
61907;SDS011;47864;52.526;19.672;2023-04-25T06:40:00;5.30;;;3.00;;
61907;SDS011;47864;52.526;19.672;2023-04-25T06:42:01;4.25;;;3.20;;
61907;SDS011;47864;52.526;19.672;2023-04-25T06:44:03;5.63;;;3.50;;
61907;SDS011;47864;52.526;19.672;2023-04-25T06:46:04;5.53;;;3.20;;
61907;SDS011;47864;52.526;19.672;2023-04-25T06:48:06;4.82;;;3.15;;
61907;SDS011;47864;52.526;19.672;2023-04-25T06:50:08;4.28;;;2.95;;
61907;SDS011;47864;52.526;19.672;2023-04-25T06:52:09;4.15;;;2.92;;
61907;SDS011;47864;52.526;19.672;2023-04-25T06:54:11;4.40;;;3.22;;
61907;SDS011;47864;52.526;19.672;2023-04-25T06:56:12;5.03;;;3.17;;
61907;SDS011;47864;52.526;19.672;2023-04-25T06:58:14;5.75;;;3.00;;
61907;SDS011;47864;52.526;19.672;2023-04-25T07:00:16;3.83;;;2.58;;
61907;SDS011;47864;52.526;19.672;2023-04-25T07:02:18;4.45;;;2.75;;
61907;SDS011;47864;52.526;19.672;2023-04-25T07:04:19;4.10;;;3.08;;
61907;SDS011;47864;52.526;19.672;2023-04-25T07:06:21;4.28;;;2.80;;
61907;SDS011;47864;52.526;19.672;2023-04-25T07:08:23;4.15;;;2.80;;
61907;SDS011;47864;52.526;19.672;2023-04-25T07:10:24;3.55;;;2.63;;
61907;SDS011;47864;52.526;19.672;2023-04-25T07:12:26;4.35;;;2.97;;
61907;SDS011;47864;52.526;19.672;2023-04-25T07:14:27;5.22;;;3.00;;
61907;SDS011;47864;52.526;19.672;2023-04-25T07:16:29;4.32;;;2.80;;
61907;SDS011;47864;52.526;19.672;2023-04-25T07:18:31;6.75;;;2.78;;
61907;SDS011;47864;52.526;19.672;2023-04-25T07:20:32;4.85;;;3.25;;
61907;SDS011;47864;52.526;19.672;2023-04-25T07:22:34;5.50;;;3.60;;
61907;SDS011;47864;52.526;19.672;2023-04-25T07:24:36;5.78;;;3.35;;
61907;SDS011;47864;52.526;19.672;2023-04-25T07:26:37;6.22;;;4.20;;
61907;SDS011;47864;52.526;19.672;2023-04-25T07:28:38;4.88;;;3.47;;
61907;SDS011;47864;52.526;19.672;2023-04-25T07:30:40;5.50;;;3.50;;
61907;SDS011;47864;52.526;19.672;2023-04-25T07:32:41;6.32;;;3.95;;
61907;SDS011;47864;52.526;19.672;2023-04-25T07:34:43;7.93;;;4.03;;
61907;SDS011;47864;52.526;19.672;2023-04-25T07:36:44;5.63;;;3.97;;
61907;SDS011;47864;52.526;19.672;2023-04-25T07:38:46;5.60;;;3.80;;
61907;SDS011;47864;52.526;19.672;2023-04-25T07:40:48;6.40;;;4.05;;
61907;SDS011;47864;52.526;19.672;2023-04-25T07:42:49;7.00;;;4.40;;
61907;SDS011;47864;52.526;19.672;2023-04-25T07:44:51;5.10;;;3.90;;
61907;SDS011;47864;52.526;19.672;2023-04-25T07:46:52;7.00;;;4.50;;
61907;SDS011;47864;52.526;19.672;2023-04-25T07:48:54;7.32;;;4.45;;
61907;SDS011;47864;52.526;19.672;2023-04-25T07:50:56;7.22;;;3.88;;
61907;SDS011;47864;52.526;19.672;2023-04-25T07:52:57;5.32;;;4.35;;
61907;SDS011;47864;52.526;19.672;2023-04-25T07:54:59;8.35;;;4.53;;
61907;SDS011;47864;52.526;19.672;2023-04-25T07:57:00;6.22;;;4.25;;
61907;SDS011;47864;52.526;19.672;2023-04-25T07:59:02;6.88;;;4.07;;
61907;SDS011;47864;52.526;19.672;2023-04-25T08:01:03;8.38;;;4.32;;
61907;SDS011;47864;52.526;19.672;2023-04-25T08:03:05;7.65;;;4.25;;
61907;SDS011;47864;52.526;19.672;2023-04-25T08:05:07;5.72;;;4.10;;
61907;SDS011;47864;52.526;19.672;2023-04-25T08:07:08;6.78;;;4.18;;
61907;SDS011;47864;52.526;19.672;2023-04-25T08:09:10;7.82;;;3.97;;
61907;SDS011;47864;52.526;19.672;2023-04-25T08:11:12;6.82;;;4.75;;
61907;SDS011;47864;52.526;19.672;2023-04-25T08:13:13;8.00;;;5.00;;
61907;SDS011;47864;52.526;19.672;2023-04-25T08:15:15;6.78;;;4.75;;
61907;SDS011;47864;52.526;19.672;2023-04-25T08:17:16;4.93;;;4.00;;
61907;SDS011;47864;52.526;19.672;2023-04-25T08:19:17;6.18;;;4.07;;
61907;SDS011;47864;52.526;19.672;2023-04-25T08:21:19;6.07;;;4.47;;
61907;SDS011;47864;52.526;19.672;2023-04-25T08:23:20;6.68;;;4.28;;
61907;SDS011;47864;52.526;19.672;2023-04-25T08:25:22;8.05;;;4.13;;
61907;SDS011;47864;52.526;19.672;2023-04-25T08:27:24;7.03;;;4.13;;
61907;SDS011;47864;52.526;19.672;2023-04-25T08:29:25;6.40;;;3.83;;
61907;SDS011;47864;52.526;19.672;2023-04-25T08:31:26;8.77;;;4.45;;
61907;SDS011;47864;52.526;19.672;2023-04-25T08:33:28;6.53;;;4.03;;
61907;SDS011;47864;52.526;19.672;2023-04-25T08:35:30;6.28;;;3.95;;
61907;SDS011;47864;52.526;19.672;2023-04-25T08:37:31;7.28;;;4.43;;
61907;SDS011;47864;52.526;19.672;2023-04-25T08:39:33;7.15;;;3.60;;
61907;SDS011;47864;52.526;19.672;2023-04-25T08:41:36;5.68;;;3.70;;
61907;SDS011;47864;52.526;19.672;2023-04-25T08:43:38;6.32;;;3.63;;
61907;SDS011;47864;52.526;19.672;2023-04-25T08:45:43;9.23;;;4.80;;
61907;SDS011;47864;52.526;19.672;2023-04-25T08:47:45;9.20;;;3.90;;
61907;SDS011;47864;52.526;19.672;2023-04-25T08:49:50;6.38;;;3.67;;
61907;SDS011;47864;52.526;19.672;2023-04-25T08:51:55;5.38;;;3.47;;
61907;SDS011;47864;52.526;19.672;2023-04-25T08:54:10;7.85;;;4.70;;
61907;SDS011;47864;52.526;19.672;2023-04-25T08:56:31;6.15;;;3.97;;
61907;SDS011;47864;52.526;19.672;2023-04-25T08:58:33;7.05;;;4.47;;
61907;SDS011;47864;52.526;19.672;2023-04-25T09:00:35;5.78;;;3.80;;
61907;SDS011;47864;52.526;19.672;2023-04-25T09:02:36;6.15;;;3.63;;
61907;SDS011;47864;52.526;19.672;2023-04-25T09:04:38;8.20;;;4.35;;
61907;SDS011;47864;52.526;19.672;2023-04-25T09:06:40;8.05;;;4.28;;
61907;SDS011;47864;52.526;19.672;2023-04-25T09:08:42;9.30;;;4.40;;
61907;SDS011;47864;52.526;19.672;2023-04-25T09:10:43;9.05;;;5.50;;
61907;SDS011;47864;52.526;19.672;2023-04-25T09:12:58;18.27;;;10.65;;
61907;SDS011;47864;52.526;19.672;2023-04-25T09:15:04;12.85;;;8.68;;
61907;SDS011;47864;52.526;19.672;2023-04-25T09:17:07;11.77;;;6.35;;
61907;SDS011;47864;52.526;19.672;2023-04-25T09:19:16;12.45;;;7.20;;
61907;SDS011;47864;52.526;19.672;2023-04-25T09:21:38;6.50;;;3.33;;
61907;SDS011;47864;52.526;19.672;2023-04-25T09:23:47;8.23;;;3.83;;
61907;SDS011;47864;52.526;19.672;2023-04-25T09:25:50;6.47;;;3.50;;
61907;SDS011;47864;52.526;19.672;2023-04-25T09:27:53;10.55;;;5.25;;
61907;SDS011;47864;52.526;19.672;2023-04-25T09:29:58;7.40;;;4.88;;
61907;SDS011;47864;52.526;19.672;2023-04-25T09:34:25;6.63;;;4.57;;
61907;SDS011;47864;52.526;19.672;2023-04-25T09:36:27;8.23;;;5.37;;
61907;SDS011;47864;52.526;19.672;2023-04-25T09:38:29;7.80;;;5.72;;
61907;SDS011;47864;52.526;19.672;2023-04-25T09:40:32;5.35;;;4.05;;
61907;SDS011;47864;52.526;19.672;2023-04-25T09:42:33;6.63;;;3.70;;
61907;SDS011;47864;52.526;19.672;2023-04-25T09:44:35;6.43;;;4.20;;
61907;SDS011;47864;52.526;19.672;2023-04-25T09:46:37;6.15;;;4.10;;
61907;SDS011;47864;52.526;19.672;2023-04-25T09:48:39;5.93;;;4.32;;
61907;SDS011;47864;52.526;19.672;2023-04-25T09:50:40;5.50;;;3.58;;
61907;SDS011;47864;52.526;19.672;2023-04-25T09:52:42;6.90;;;4.25;;
61907;SDS011;47864;52.526;19.672;2023-04-25T09:54:47;5.28;;;3.67;;
61907;SDS011;47864;52.526;19.672;2023-04-25T09:56:50;6.53;;;3.50;;
61907;SDS011;47864;52.526;19.672;2023-04-25T10:00:55;6.57;;;3.95;;
61907;SDS011;47864;52.526;19.672;2023-04-25T10:03:01;5.28;;;3.42;;
61907;SDS011;47864;52.526;19.672;2023-04-25T10:05:05;5.33;;;3.50;;
61907;SDS011;47864;52.526;19.672;2023-04-25T10:07:10;7.03;;;3.67;;
61907;SDS011;47864;52.526;19.672;2023-04-25T10:09:12;5.57;;;3.50;;
61907;SDS011;47864;52.526;19.672;2023-04-25T10:11:15;5.03;;;3.40;;
61907;SDS011;47864;52.526;19.672;2023-04-25T10:13:16;6.88;;;4.22;;
61907;SDS011;47864;52.526;19.672;2023-04-25T10:15:18;7.60;;;4.55;;
61907;SDS011;47864;52.526;19.672;2023-04-25T10:17:21;5.00;;;3.78;;
61907;SDS011;47864;52.526;19.672;2023-04-25T10:19:22;5.28;;;3.42;;
61907;SDS011;47864;52.526;19.672;2023-04-25T10:21:25;5.47;;;3.45;;
61907;SDS011;47864;52.526;19.672;2023-04-25T10:23:30;5.35;;;3.20;;
61907;SDS011;47864;52.526;19.672;2023-04-25T10:25:32;7.97;;;4.23;;
61907;SDS011;47864;52.526;19.672;2023-04-25T10:27:34;4.35;;;3.25;;
61907;SDS011;47864;52.526;19.672;2023-04-25T10:29:36;8.07;;;4.70;;
61907;SDS011;47864;52.526;19.672;2023-04-25T10:31:47;9.20;;;3.75;;
61907;SDS011;47864;52.526;19.672;2023-04-25T10:33:49;6.43;;;3.08;;
61907;SDS011;47864;52.526;19.672;2023-04-25T10:35:51;5.68;;;3.28;;
61907;SDS011;47864;52.526;19.672;2023-04-25T10:40:27;6.28;;;3.67;;
61907;SDS011;47864;52.526;19.672;2023-04-25T10:42:29;5.18;;;2.63;;
61907;SDS011;47864;52.526;19.672;2023-04-25T10:44:30;4.25;;;2.85;;
61907;SDS011;47864;52.526;19.672;2023-04-25T10:46:32;6.07;;;2.97;;
61907;SDS011;47864;52.526;19.672;2023-04-25T10:48:35;6.22;;;2.83;;
61907;SDS011;47864;52.526;19.672;2023-04-25T10:50:39;6.97;;;2.70;;
61907;SDS011;47864;52.526;19.672;2023-04-25T10:52:42;5.68;;;2.80;;
61907;SDS011;47864;52.526;19.672;2023-04-25T10:54:56;4.50;;;2.70;;
61907;SDS011;47864;52.526;19.672;2023-04-25T10:56:59;4.30;;;2.88;;
61907;SDS011;47864;52.526;19.672;2023-04-25T11:01:15;8.13;;;3.70;;
61907;SDS011;47864;52.526;19.672;2023-04-25T11:03:21;4.63;;;3.05;;
61907;SDS011;47864;52.526;19.672;2023-04-25T11:05:29;4.28;;;2.55;;
61907;SDS011;47864;52.526;19.672;2023-04-25T11:07:49;6.03;;;3.22;;
61907;SDS011;47864;52.526;19.672;2023-04-25T11:10:07;4.85;;;2.60;;
61907;SDS011;47864;52.526;19.672;2023-04-25T11:12:08;3.28;;;2.20;;
61907;SDS011;47864;52.526;19.672;2023-04-25T11:14:11;4.10;;;2.58;;
61907;SDS011;47864;52.526;19.672;2023-04-25T11:16:12;9.38;;;5.00;;
61907;SDS011;47864;52.526;19.672;2023-04-25T11:18:27;5.50;;;3.10;;
61907;SDS011;47864;52.526;19.672;2023-04-25T11:20:29;4.82;;;2.95;;
61907;SDS011;47864;52.526;19.672;2023-04-25T11:22:30;5.18;;;3.03;;
61907;SDS011;47864;52.526;19.672;2023-04-25T11:24:33;5.03;;;2.80;;
61907;SDS011;47864;52.526;19.672;2023-04-25T11:26:36;6.07;;;3.08;;
61907;SDS011;47864;52.526;19.672;2023-04-25T11:28:37;6.22;;;2.88;;
61907;SDS011;47864;52.526;19.672;2023-04-25T11:30:38;5.03;;;3.20;;
61907;SDS011;47864;52.526;19.672;2023-04-25T11:32:41;7.47;;;3.60;;
61907;SDS011;47864;52.526;19.672;2023-04-25T11:34:43;6.78;;;3.33;;
61907;SDS011;47864;52.526;19.672;2023-04-25T11:36:45;4.18;;;2.50;;
61907;SDS011;47864;52.526;19.672;2023-04-25T11:38:47;4.30;;;2.13;;
61907;SDS011;47864;52.526;19.672;2023-04-25T11:40:49;3.88;;;2.15;;
61907;SDS011;47864;52.526;19.672;2023-04-25T11:42:54;4.82;;;2.60;;
61907;SDS011;47864;52.526;19.672;2023-04-25T11:44:56;5.50;;;2.80;;
61907;SDS011;47864;52.526;19.672;2023-04-25T11:46:57;4.55;;;2.67;;
61907;SDS011;47864;52.526;19.672;2023-04-25T11:48:59;4.60;;;2.83;;
61907;SDS011;47864;52.526;19.672;2023-04-25T11:51:00;8.70;;;7.05;;
61907;SDS011;47864;52.526;19.672;2023-04-25T11:53:02;4.38;;;3.38;;
61907;SDS011;47864;52.526;19.672;2023-04-25T11:55:04;5.13;;;2.80;;
61907;SDS011;47864;52.526;19.672;2023-04-25T11:57:18;5.55;;;3.00;;
61907;SDS011;47864;52.526;19.672;2023-04-25T11:59:23;5.30;;;3.15;;
61907;SDS011;47864;52.526;19.672;2023-04-25T12:01:31;4.13;;;2.83;;
61907;SDS011;47864;52.526;19.672;2023-04-25T12:03:45;5.97;;;2.92;;
61907;SDS011;47864;52.526;19.672;2023-04-25T12:05:47;6.05;;;3.00;;
61907;SDS011;47864;52.526;19.672;2023-04-25T12:07:49;4.68;;;2.65;;
61907;SDS011;47864;52.526;19.672;2023-04-25T12:09:51;4.00;;;2.80;;
61907;SDS011;47864;52.526;19.672;2023-04-25T12:11:54;5.18;;;2.63;;